createdAt,value
2022-09-28T00:01:15.804Z,8.02
2022-09-28T00:03:42.670Z,7.82
2022-09-28T00:06:12.867Z,8.07
2022-09-28T00:08:40.575Z,9.63
2022-09-28T00:11:11.068Z,6.63
2022-09-28T00:13:37.742Z,9.63
2022-09-28T00:16:10.615Z,9.25
2022-09-28T00:18:37.362Z,9.13
2022-09-28T00:21:17.082Z,8.55
2022-09-28T00:24:03.819Z,7.80
2022-09-28T00:26:32.915Z,8.65
2022-09-28T00:29:01.860Z,10.15
2022-09-28T00:31:31.671Z,7.90
2022-09-28T00:34:00.211Z,9.93
2022-09-28T00:36:32.088Z,8.63
2022-09-28T00:39:02.787Z,9.07
2022-09-28T00:41:29.663Z,8.80
2022-09-28T00:44:21.330Z,8.23
2022-09-28T00:46:50.335Z,10.88
2022-09-28T00:49:19.819Z,8.90
2022-09-28T00:51:47.786Z,8.52
2022-09-28T00:54:16.226Z,8.57
2022-09-28T00:56:47.357Z,8.43
2022-09-28T00:59:15.185Z,7.97
2022-09-28T01:01:41.893Z,8.15
2022-09-28T01:04:08.713Z,7.85
2022-09-28T01:06:37.983Z,9.73
2022-09-28T01:09:08.419Z,8.02
2022-09-28T01:11:38.424Z,7.53
2022-09-28T01:14:09.868Z,10.05
2022-09-28T01:16:45.401Z,8.57
2022-09-28T01:19:51.401Z,7.85
2022-09-28T01:22:24.268Z,10.20
2022-09-28T01:25:27.749Z,9.02
2022-09-28T01:28:14.210Z,6.43
2022-09-28T01:30:58.401Z,7.82
2022-09-28T01:33:29.989Z,8.50
2022-09-28T01:36:10.076Z,6.85
2022-09-28T01:38:46.060Z,9.48
2022-09-28T01:41:13.800Z,7.18
2022-09-28T01:43:43.497Z,9.85
2022-09-28T01:46:15.635Z,10.02
2022-09-28T01:48:56.337Z,7.90
2022-09-28T01:51:30.258Z,8.50
2022-09-28T01:54:01.629Z,10.25
2022-09-28T01:56:34.411Z,7.22
2022-09-28T01:59:13.696Z,6.82
2022-09-28T02:01:51.718Z,8.10
2022-09-28T02:04:23.026Z,8.82
2022-09-28T02:06:56.154Z,7.10
2022-09-28T02:09:33.605Z,10.65
2022-09-28T02:12:07.522Z,7.63
2022-09-28T02:14:37.677Z,6.55
2022-09-28T02:17:04.773Z,8.32
2022-09-28T02:19:33.005Z,6.82
2022-09-28T02:22:26.318Z,7.70
2022-09-28T02:24:58.844Z,8.43
2022-09-28T02:27:42.643Z,8.38
2022-09-28T02:30:10.290Z,7.93
2022-09-28T02:32:42.494Z,8.23
2022-09-28T02:35:12.016Z,7.72
2022-09-28T02:37:48.275Z,6.78
2022-09-28T02:40:20.677Z,9.45
2022-09-28T02:43:10.750Z,9.95
2022-09-28T02:46:02.019Z,9.20
2022-09-28T02:49:10.658Z,8.85
2022-09-28T02:52:06.290Z,6.07
2022-09-28T02:54:46.258Z,7.72
2022-09-28T02:57:37.261Z,7.70
2022-09-28T03:00:12.897Z,9.95
2022-09-28T03:03:00.345Z,6.85
2022-09-28T03:05:55.633Z,10.00
2022-09-28T03:08:27.702Z,8.48
2022-09-28T03:11:13.798Z,9.30
2022-09-28T03:13:41.565Z,8.60
2022-09-28T03:16:14.490Z,9.50
2022-09-28T03:18:44.197Z,8.85
2022-09-28T03:21:15.285Z,7.45
2022-09-28T03:23:42.450Z,10.30
2022-09-28T03:26:12.989Z,8.93
2022-09-28T03:28:40.741Z,9.65
2022-09-28T03:31:11.262Z,7.28
2022-09-28T03:33:38.214Z,8.80
2022-09-28T03:36:05.881Z,9.30
2022-09-28T03:38:32.619Z,9.05
2022-09-28T03:41:00.612Z,12.88
2022-09-28T03:43:33.630Z,8.20
2022-09-28T03:46:02.977Z,9.70
2022-09-28T03:48:37.109Z,8.95
2022-09-28T03:51:06.819Z,10.02
2022-09-28T03:53:33.728Z,8.73
2022-09-28T03:56:13.154Z,10.55
2022-09-28T03:58:41.244Z,9.13
2022-09-28T04:01:17.377Z,10.40
2022-09-28T04:03:46.476Z,11.77
2022-09-28T04:06:13.732Z,9.73
2022-09-28T04:08:40.510Z,14.75
2022-09-28T04:11:20.144Z,11.68
2022-09-28T04:13:50.257Z,10.98
2022-09-28T04:16:18.383Z,11.10
2022-09-28T04:18:54.179Z,10.38
2022-09-28T04:21:39.864Z,10.00
2022-09-28T04:24:12.761Z,12.07
2022-09-28T04:26:39.461Z,10.63
2022-09-28T04:29:18.922Z,12.40
2022-09-28T04:31:56.754Z,11.52
2022-09-28T04:34:36.359Z,11.02
2022-09-28T04:37:04.975Z,11.95
2022-09-28T04:39:31.771Z,14.30
2022-09-28T04:41:58.518Z,25.75
2022-09-28T04:44:27.066Z,24.63
2022-09-28T04:47:04.854Z,23.70
2022-09-28T04:49:32.070Z,13.45
2022-09-28T04:52:08.424Z,13.32
2022-09-28T04:54:35.563Z,15.13
2022-09-28T04:57:03.626Z,14.63
2022-09-28T04:59:30.249Z,12.90
2022-09-28T05:01:56.996Z,13.73
2022-09-28T05:04:49.542Z,11.57
2022-09-28T05:07:38.562Z,12.00
2022-09-28T05:10:06.935Z,10.68
2022-09-28T05:12:34.213Z,11.07
2022-09-28T05:15:00.941Z,13.70
2022-09-28T05:17:27.812Z,9.90
2022-09-28T05:20:20.756Z,15.60
2022-09-28T05:22:47.493Z,15.65
2022-09-28T05:25:14.505Z,12.18
2022-09-28T05:27:56.942Z,12.00
2022-09-28T05:30:46.936Z,14.40
2022-09-28T05:33:32.235Z,11.77
2022-09-28T05:36:13.205Z,11.90
2022-09-28T05:38:41.854Z,15.10
2022-09-28T05:41:08.925Z,13.75
2022-09-28T05:43:36.219Z,9.75
2022-09-28T05:46:05.671Z,13.05
2022-09-28T05:48:34.327Z,14.00
2022-09-28T05:51:01.562Z,11.52
2022-09-28T05:53:28.312Z,13.23
2022-09-28T05:56:00.452Z,11.10
2022-09-28T05:58:28.422Z,12.40
2022-09-28T06:00:58.795Z,13.23
2022-09-28T06:03:25.738Z,13.85
2022-09-28T06:05:53.795Z,11.98
2022-09-28T06:08:20.884Z,14.00
2022-09-28T06:11:00.256Z,12.73
2022-09-28T06:13:27.777Z,12.18
2022-09-28T06:15:54.718Z,12.43
2022-09-28T06:18:21.390Z,12.48
2022-09-28T06:21:08.172Z,10.80
2022-09-28T06:23:39.948Z,13.73
2022-09-28T06:26:07.392Z,14.75
2022-09-28T06:28:34.228Z,15.20
2022-09-28T06:31:01.118Z,18.88
2022-09-28T06:33:30.137Z,12.02
2022-09-28T06:35:59.302Z,11.52
2022-09-28T06:38:26.494Z,12.77
2022-09-28T06:40:53.600Z,13.27
2022-09-28T06:43:20.893Z,12.23
2022-09-28T06:46:09.713Z,13.50
2022-09-28T06:48:55.061Z,13.52
2022-09-28T06:51:50.709Z,13.60
2022-09-28T06:54:47.125Z,14.27
2022-09-28T06:57:29.788Z,15.07
2022-09-28T06:59:56.427Z,11.35
2022-09-28T07:02:23.177Z,12.75
2022-09-28T07:05:13.686Z,14.93
2022-09-28T07:07:55.512Z,14.52
2022-09-28T07:10:45.849Z,14.75
2022-09-28T07:16:15.176Z,12.95
2022-09-28T07:18:42.167Z,12.13
2022-09-28T07:21:13.714Z,13.00
2022-09-28T07:23:52.397Z,11.90
2022-09-28T07:26:24.577Z,12.85
2022-09-28T07:29:17.492Z,13.25
2022-09-28T07:31:57.292Z,12.48
2022-09-28T07:34:48.578Z,11.48
2022-09-28T07:37:26.477Z,12.98
2022-09-28T07:40:12.437Z,12.50
2022-09-28T07:42:39.512Z,11.70
2022-09-28T07:45:07.458Z,11.93
2022-09-28T07:47:35.404Z,8.27
2022-09-28T07:50:31.395Z,8.95
2022-09-28T07:53:26.170Z,9.02
2022-09-28T07:56:13.890Z,9.18
2022-09-28T07:58:47.824Z,7.38
2022-09-28T08:01:49.912Z,8.00
2022-09-28T08:04:17.483Z,7.18
2022-09-28T08:06:48.215Z,12.68
2022-09-28T08:09:15.007Z,10.23
2022-09-28T08:12:00.694Z,9.15
2022-09-28T08:14:43.594Z,9.07
2022-09-28T08:17:23.357Z,9.13
2022-09-28T08:20:12.948Z,9.80
2022-09-28T08:22:39.808Z,12.35
2022-09-28T08:25:07.130Z,11.30
2022-09-28T08:27:33.910Z,8.85
2022-09-28T08:30:01.636Z,9.82
2022-09-28T08:33:00.854Z,8.95
2022-09-28T08:35:42.998Z,9.40
2022-09-28T08:38:26.537Z,10.43
2022-09-28T08:41:11.787Z,10.68
2022-09-28T08:44:14.305Z,10.70
2022-09-28T08:47:50.038Z,10.43
2022-09-28T08:50:32.729Z,7.97
2022-09-28T08:53:38.430Z,7.80
2022-09-28T08:56:24.366Z,9.60
2022-09-28T08:58:57.180Z,8.77
2022-09-28T09:01:30.086Z,7.72
2022-09-28T09:03:58.062Z,7.97
2022-09-28T09:06:59.350Z,9.32
2022-09-28T09:09:39.201Z,6.57
2022-09-28T09:12:18.451Z,8.52
2022-09-28T09:14:52.476Z,7.28
2022-09-28T09:17:37.983Z,9.77
2022-09-28T09:20:25.664Z,9.23
2022-09-28T09:23:16.957Z,6.10
2022-09-28T09:25:54.832Z,5.90
2022-09-28T09:28:43.843Z,8.82
2022-09-28T09:31:28.729Z,6.53
2022-09-28T09:34:31.051Z,8.15
2022-09-28T09:37:50.074Z,5.85
2022-09-28T09:40:38.496Z,6.10
2022-09-28T09:43:42.115Z,6.55
2022-09-28T09:46:57.554Z,6.00
2022-09-28T09:49:47.961Z,4.10
2022-09-28T09:52:26.161Z,5.72
2022-09-28T09:54:56.243Z,6.80
2022-09-28T09:57:39.995Z,4.38
2022-09-28T10:00:17.305Z,4.40
2022-09-28T10:03:02.251Z,5.60
2022-09-28T10:05:42.770Z,4.82
2022-09-28T10:08:09.457Z,5.93
2022-09-28T10:11:16.520Z,5.50
2022-09-28T10:13:49.135Z,4.20
2022-09-28T10:16:37.947Z,6.25
2022-09-28T10:19:13.573Z,3.90
2022-09-28T10:22:02.956Z,5.80
2022-09-28T10:24:34.202Z,6.82
2022-09-28T10:27:08.201Z,4.80
2022-09-28T10:29:44.114Z,4.53
2022-09-28T10:32:26.277Z,4.13
2022-09-28T10:35:18.578Z,4.22
2022-09-28T10:37:52.147Z,4.40
2022-09-28T10:40:46.430Z,3.00
2022-09-28T10:43:36.860Z,5.32
2022-09-28T10:46:21.140Z,3.00
2022-09-28T10:48:53.735Z,3.22
2022-09-28T10:51:51.922Z,3.58
2022-09-28T10:54:26.523Z,4.03
2022-09-28T10:56:54.892Z,3.50
2022-09-28T10:59:54.080Z,3.25
2022-09-28T11:02:36.489Z,5.18
2022-09-28T11:05:22.672Z,3.65
2022-09-28T11:07:52.672Z,5.43
2022-09-28T11:10:27.664Z,3.63
2022-09-28T11:12:59.545Z,2.88
2022-09-28T11:15:31.330Z,3.10
2022-09-28T11:18:31.291Z,4.07
2022-09-28T11:21:14.721Z,4.57
2022-09-28T11:24:06.971Z,3.50
2022-09-28T11:26:43.575Z,5.35
2022-09-28T11:29:22.185Z,2.55
2022-09-28T11:32:05.680Z,1.88
2022-09-28T11:34:59.254Z,2.78
2022-09-28T11:37:45.188Z,3.78
2022-09-28T11:40:28.669Z,4.72
2022-09-28T11:42:58.533Z,2.83
2022-09-28T11:45:41.342Z,3.17
2022-09-28T11:48:29.614Z,3.50
2022-09-28T11:51:31.272Z,3.95
2022-09-28T11:54:18.093Z,2.88
2022-09-28T11:56:48.538Z,2.33
2022-09-28T11:59:28.978Z,4.88
2022-09-28T12:02:00.563Z,3.28
2022-09-28T12:04:52.629Z,4.45
2022-09-28T12:07:41.141Z,3.38
2022-09-28T12:10:21.781Z,2.50
2022-09-28T12:13:16.569Z,2.72
2022-09-28T12:19:13.249Z,2.45
2022-09-28T12:21:56.711Z,2.58
2022-09-28T12:24:45.897Z,2.28
2022-09-28T12:27:27.039Z,2.30
2022-09-28T12:30:15.824Z,2.03
2022-09-28T12:33:03.812Z,2.58
2022-09-28T12:35:59.489Z,2.33
2022-09-28T12:39:17.744Z,2.25
2022-09-28T12:42:07.625Z,2.33
2022-09-28T12:44:58.574Z,4.65
2022-09-28T12:47:53.909Z,2.03
2022-09-28T12:50:53.961Z,1.88
2022-09-28T12:53:29.522Z,2.30
2022-09-28T12:56:21.487Z,2.97
2022-09-28T12:59:01.351Z,1.33
2022-09-28T13:01:55.868Z,1.42
2022-09-28T13:04:39.001Z,1.30
2022-09-28T13:07:13.657Z,1.65
2022-09-28T13:09:50.125Z,1.90
2022-09-28T13:12:25.227Z,1.48
2022-09-28T13:15:27.706Z,2.13
2022-09-28T13:18:08.023Z,1.75
2022-09-28T13:20:54.085Z,1.58
2022-09-28T13:23:27.838Z,1.48
2022-09-28T13:26:07.027Z,1.20
2022-09-28T13:28:35.494Z,1.52
2022-09-28T13:31:04.280Z,1.00
2022-09-28T13:33:36.535Z,1.13
2022-09-28T13:36:27.720Z,2.28
2022-09-28T13:38:56.540Z,2.35
2022-09-28T13:41:29.660Z,1.95
2022-09-28T13:44:08.877Z,2.65
2022-09-28T13:46:57.379Z,1.05
2022-09-28T13:49:30.755Z,1.45
2022-09-28T13:52:13.293Z,1.73
2022-09-28T13:54:45.698Z,1.02
2022-09-28T13:57:29.786Z,1.13
2022-09-28T14:00:23.732Z,2.45
2022-09-28T14:03:01.293Z,2.15
2022-09-28T14:05:53.179Z,0.80
2022-09-28T14:08:38.306Z,3.00
2022-09-28T14:11:34.165Z,1.67
2022-09-28T14:14:07.892Z,0.88
2022-09-28T14:16:36.764Z,0.80
2022-09-28T14:19:24.155Z,1.70
2022-09-28T14:21:58.273Z,2.38
2022-09-28T14:24:30.169Z,0.70
2022-09-28T14:27:24.726Z,0.77
2022-09-28T14:30:06.425Z,4.63
2022-09-28T14:32:36.410Z,1.05
2022-09-28T14:35:18.605Z,0.70
2022-09-28T14:38:07.808Z,0.68
2022-09-28T14:41:09.266Z,0.80
2022-09-28T14:43:45.058Z,1.05
2022-09-28T14:46:11.853Z,1.48
2022-09-28T14:48:48.901Z,2.35
2022-09-28T14:51:27.413Z,0.77
2022-09-28T14:54:00.196Z,0.68
2022-09-28T14:56:32.574Z,0.65
2022-09-28T14:59:00.377Z,1.17
2022-09-28T15:01:27.466Z,0.70
2022-09-28T15:04:04.435Z,0.50
2022-09-28T15:06:48.417Z,1.15
2022-09-28T15:09:32.868Z,1.23
2022-09-28T15:12:03.544Z,1.05
2022-09-28T15:14:33.053Z,1.05
2022-09-28T15:17:02.765Z,1.95
2022-09-28T15:19:44.530Z,1.00
2022-09-28T15:22:16.326Z,1.90
2022-09-28T15:24:53.728Z,0.60
2022-09-28T15:27:20.323Z,1.08
2022-09-28T15:30:01.621Z,0.60
2022-09-28T15:32:31.618Z,0.70
2022-09-28T15:35:14.364Z,1.52
2022-09-28T15:37:41.839Z,0.65
2022-09-28T15:40:15.033Z,1.00
2022-09-28T15:42:42.070Z,2.33
2022-09-28T15:45:30.613Z,0.70
2022-09-28T15:48:19.833Z,2.17
2022-09-28T15:51:03.754Z,2.67
2022-09-28T15:53:31.220Z,1.55
2022-09-28T15:56:09.722Z,1.20
2022-09-28T15:58:37.949Z,1.42
2022-09-28T16:01:36.087Z,2.60
2022-09-28T16:04:40.468Z,2.05
2022-09-28T16:07:13.237Z,1.25
2022-09-28T16:10:25.920Z,1.30
2022-09-28T16:13:00.005Z,1.20
2022-09-28T16:15:28.260Z,1.10
2022-09-28T16:18:20.587Z,2.35
2022-09-28T16:20:50.991Z,1.17
2022-09-28T16:23:31.079Z,0.75
2022-09-28T16:26:06.384Z,1.13
2022-09-28T16:28:34.565Z,1.30
2022-09-28T16:31:28.684Z,2.10
2022-09-28T16:34:11.414Z,2.45
2022-09-28T16:36:47.145Z,1.15
2022-09-28T16:39:16.395Z,1.30
2022-09-28T16:41:48.384Z,3.13
2022-09-28T16:44:36.755Z,1.90
2022-09-28T16:47:03.444Z,1.83
2022-09-28T16:49:32.020Z,1.08
2022-09-28T16:51:59.406Z,1.00
2022-09-28T16:54:44.326Z,1.75
2022-09-28T16:57:14.671Z,0.82
2022-09-28T16:59:41.395Z,1.27
2022-09-28T17:05:07.019Z,1.27
2022-09-28T17:07:34.048Z,2.33
2022-09-28T17:10:00.737Z,3.33
2022-09-28T17:12:28.824Z,6.63
2022-09-28T17:14:55.494Z,5.47
2022-09-28T17:17:22.624Z,5.63
2022-09-28T17:19:49.315Z,7.13
2022-09-28T17:22:16.672Z,6.45
2022-09-28T17:24:45.423Z,3.80
2022-09-28T17:27:18.487Z,3.03
2022-09-28T17:29:45.188Z,3.38
2022-09-28T17:32:18.805Z,3.28
2022-09-28T17:34:55.810Z,2.72
2022-09-28T17:37:28.178Z,3.10
2022-09-28T17:39:54.784Z,4.45
2022-09-28T17:42:21.427Z,3.67
2022-09-28T17:44:48.074Z,4.43
2022-09-28T17:47:14.861Z,3.60
2022-09-28T17:49:42.165Z,5.43
2022-09-28T17:52:09.574Z,2.33
2022-09-28T17:54:36.159Z,1.02
2022-09-28T17:57:02.905Z,0.82
2022-09-28T17:59:29.589Z,1.33
2022-09-28T18:01:59.389Z,0.88
2022-09-28T18:04:50.900Z,1.73
2022-09-28T18:07:15.736Z,1.45
2022-09-28T18:09:42.356Z,1.20
2022-09-28T18:12:09.171Z,4.40
2022-09-28T18:14:36.015Z,1.77
2022-09-28T18:17:02.872Z,1.42
2022-09-28T18:19:32.140Z,2.05
2022-09-28T18:21:59.360Z,1.30
2022-09-28T18:24:25.993Z,0.80
2022-09-28T18:26:52.641Z,1.27
2022-09-28T18:29:19.295Z,3.40
2022-09-28T18:31:48.646Z,0.40
2022-09-28T18:34:17.096Z,1.55
2022-09-28T18:36:44.192Z,0.52
2022-09-28T18:39:11.497Z,2.25
2022-09-28T18:41:38.505Z,1.38
2022-09-28T18:44:06.991Z,0.70
2022-09-28T18:46:36.566Z,0.73
2022-09-28T18:49:04.590Z,2.65
2022-09-28T18:51:32.260Z,1.73
2022-09-28T18:54:01.961Z,2.55
2022-09-28T18:56:28.732Z,1.48
2022-09-28T18:58:56.742Z,1.65
2022-09-28T19:01:31.543Z,1.52
2022-09-28T19:04:00.442Z,1.65
2022-09-28T19:06:27.844Z,4.22
2022-09-28T19:08:55.637Z,2.85
2022-09-28T19:11:25.582Z,1.10
2022-09-28T19:13:54.936Z,2.05
2022-09-28T19:16:25.008Z,1.52
2022-09-28T19:18:58.586Z,2.45
2022-09-28T19:21:27.303Z,0.80
2022-09-28T19:23:55.256Z,2.30
2022-09-28T19:26:25.151Z,1.50
2022-09-28T19:28:52.273Z,1.67
2022-09-28T19:31:19.877Z,1.00
2022-09-28T19:33:48.740Z,1.92
2022-09-28T19:36:24.585Z,5.80
2022-09-28T19:38:54.435Z,0.63
2022-09-28T19:41:44.737Z,1.10
2022-09-28T19:44:29.738Z,2.15
2022-09-28T19:47:09.087Z,0.90
2022-09-28T19:49:41.379Z,1.15
2022-09-28T19:52:15.675Z,1.17
2022-09-28T19:54:57.245Z,0.80
2022-09-28T19:57:25.922Z,1.33
2022-09-28T19:59:54.990Z,1.95
2022-09-28T20:02:24.703Z,3.63
2022-09-28T20:04:51.342Z,2.15
2022-09-28T20:07:18.023Z,2.85
2022-09-28T20:09:44.979Z,2.65
2022-09-28T20:12:11.612Z,5.03
2022-09-28T20:14:40.430Z,4.72
2022-09-28T20:17:07.631Z,2.75
2022-09-28T20:19:34.870Z,2.05
2022-09-28T20:22:02.470Z,2.05
2022-09-28T20:24:29.202Z,2.40
2022-09-28T20:26:55.990Z,3.78
2022-09-28T20:29:24.181Z,1.90
2022-09-28T20:31:51.640Z,1.17
2022-09-28T20:34:18.306Z,1.20
2022-09-28T20:36:45.004Z,0.90
2022-09-28T20:39:12.082Z,0.85
2022-09-28T20:41:38.853Z,2.40
2022-09-28T20:44:06.804Z,0.93
2022-09-28T20:46:35.379Z,0.90
2022-09-28T20:49:02.864Z,1.15
2022-09-28T20:51:29.480Z,0.50
2022-09-28T20:53:58.098Z,0.93
2022-09-28T20:56:27.131Z,1.45
2022-09-28T20:58:54.949Z,1.10
2022-09-28T21:01:24.070Z,0.70
2022-09-28T21:03:53.964Z,1.30
2022-09-28T21:06:22.012Z,1.23
2022-09-28T21:08:49.587Z,1.92
2022-09-28T21:11:18.757Z,1.45
2022-09-28T21:13:45.429Z,1.35
2022-09-28T21:16:14.315Z,2.88
2022-09-28T21:18:41.492Z,1.52
2022-09-28T21:21:11.364Z,1.33
2022-09-28T21:23:38.785Z,1.25
2022-09-28T21:26:26.779Z,1.63
2022-09-28T21:28:59.189Z,1.40
2022-09-28T21:31:29.353Z,1.70
2022-09-28T21:33:57.293Z,1.50
2022-09-28T21:36:24.974Z,1.60
2022-09-28T21:38:51.654Z,1.88
2022-09-28T21:41:18.263Z,2.97
2022-09-28T21:43:45.811Z,2.30
2022-09-28T21:46:12.757Z,2.95
2022-09-28T21:48:39.535Z,3.63
2022-09-28T21:51:08.994Z,3.42
2022-09-28T21:53:37.091Z,4.32
2022-09-28T21:56:06.353Z,6.00
2022-09-28T21:58:35.274Z,4.85
2022-09-28T22:01:10.831Z,4.38
2022-09-28T22:03:37.484Z,4.53
2022-09-28T22:06:05.368Z,5.15
2022-09-28T22:08:32.700Z,5.35
2022-09-28T22:11:03.444Z,7.88
2022-09-28T22:13:32.128Z,5.03
2022-09-28T22:15:59.101Z,2.95
2022-09-28T22:18:30.928Z,2.35
2022-09-28T22:21:06.550Z,3.88
2022-09-28T22:23:34.506Z,1.95
2022-09-28T22:26:03.782Z,2.10
2022-09-28T22:28:30.407Z,3.42
2022-09-28T22:30:57.645Z,2.28
2022-09-28T22:33:25.079Z,2.15
2022-09-28T22:35:52.051Z,2.22
2022-09-28T22:38:20.072Z,2.63
2022-09-28T22:40:54.926Z,2.60
2022-09-28T22:43:23.362Z,2.70
2022-09-28T22:45:50.335Z,3.00
2022-09-28T22:48:17.014Z,3.20
2022-09-28T22:50:50.915Z,3.83
2022-09-28T22:53:18.827Z,7.40
2022-09-28T22:55:45.555Z,3.83
2022-09-28T22:58:12.256Z,3.63
2022-09-28T23:00:39.086Z,6.20
2022-09-28T23:03:05.866Z,4.35
2022-09-28T23:05:33.040Z,4.97
2022-09-28T23:07:59.816Z,4.57
2022-09-28T23:10:26.442Z,7.55
2022-09-28T23:12:56.389Z,5.80
2022-09-28T23:15:23.242Z,5.00
2022-09-28T23:17:53.877Z,7.15
2022-09-28T23:20:21.649Z,5.25
2022-09-28T23:22:49.425Z,5.88
2022-09-28T23:25:18.536Z,10.73
2022-09-28T23:27:49.473Z,4.32
2022-09-28T23:30:17.751Z,5.18
2022-09-28T23:32:44.813Z,6.85
2022-09-28T23:35:12.793Z,8.63
2022-09-28T23:37:39.787Z,5.80
2022-09-28T23:40:07.239Z,6.30
2022-09-28T23:42:35.376Z,5.60
2022-09-28T23:45:01.988Z,4.72
2022-09-28T23:47:28.619Z,7.53
2022-09-28T23:49:55.252Z,6.55
2022-09-28T23:52:21.854Z,5.80
2022-09-28T23:54:48.499Z,5.93
2022-09-28T23:57:15.111Z,5.78
2022-09-28T23:59:41.698Z,5.85
